sensor_id;sensor_type;location;lat;lon;timestamp;P1;durP1;ratioP1;P2;durP2;ratioP2
17864;SDS011;9058;52.018;4.202;2022-12-26T00:01:56;40.85;;;22.42;;
17864;SDS011;9058;52.018;4.202;2022-12-26T00:04:24;41.30;;;20.42;;
17864;SDS011;9058;52.018;4.202;2022-12-26T00:06:51;35.97;;;19.98;;
17864;SDS011;9058;52.018;4.202;2022-12-26T00:09:18;44.33;;;21.27;;
17864;SDS011;9058;52.018;4.202;2022-12-26T00:11:45;39.00;;;19.67;;
17864;SDS011;9058;52.018;4.202;2022-12-26T00:14:12;38.35;;;20.85;;
17864;SDS011;9058;52.018;4.202;2022-12-26T00:16:39;32.35;;;17.77;;
17864;SDS011;9058;52.018;4.202;2022-12-26T00:19:06;35.53;;;19.33;;
17864;SDS011;9058;52.018;4.202;2022-12-26T00:21:33;40.42;;;19.17;;
17864;SDS011;9058;52.018;4.202;2022-12-26T00:24:01;32.25;;;18.55;;
17864;SDS011;9058;52.018;4.202;2022-12-26T00:26:28;32.35;;;16.02;;
17864;SDS011;9058;52.018;4.202;2022-12-26T00:28:55;34.60;;;17.20;;
17864;SDS011;9058;52.018;4.202;2022-12-26T00:31:22;29.88;;;16.73;;
17864;SDS011;9058;52.018;4.202;2022-12-26T00:33:49;31.58;;;17.05;;
17864;SDS011;9058;52.018;4.202;2022-12-26T00:36:16;31.17;;;15.82;;
17864;SDS011;9058;52.018;4.202;2022-12-26T00:38:43;27.13;;;15.10;;
17864;SDS011;9058;52.018;4.202;2022-12-26T00:41:11;25.98;;;15.95;;
17864;SDS011;9058;52.018;4.202;2022-12-26T00:43:37;28.40;;;15.77;;
17864;SDS011;9058;52.018;4.202;2022-12-26T00:46:04;25.00;;;14.27;;
17864;SDS011;9058;52.018;4.202;2022-12-26T00:48:31;26.00;;;15.88;;
17864;SDS011;9058;52.018;4.202;2022-12-26T00:50:57;27.45;;;15.90;;
17864;SDS011;9058;52.018;4.202;2022-12-26T00:53:24;22.10;;;14.18;;
17864;SDS011;9058;52.018;4.202;2022-12-26T00:55:50;26.58;;;14.18;;
17864;SDS011;9058;52.018;4.202;2022-12-26T00:58:19;29.48;;;16.45;;
17864;SDS011;9058;52.018;4.202;2022-12-26T01:00:45;22.63;;;14.95;;
17864;SDS011;9058;52.018;4.202;2022-12-26T01:03:12;24.30;;;14.40;;
17864;SDS011;9058;52.018;4.202;2022-12-26T01:05:39;24.30;;;14.52;;
17864;SDS011;9058;52.018;4.202;2022-12-26T01:08:06;24.27;;;15.48;;
17864;SDS011;9058;52.018;4.202;2022-12-26T01:10:32;25.70;;;16.00;;
17864;SDS011;9058;52.018;4.202;2022-12-26T01:12:58;27.45;;;15.57;;
17864;SDS011;9058;52.018;4.202;2022-12-26T01:15:26;24.92;;;14.30;;
17864;SDS011;9058;52.018;4.202;2022-12-26T01:17:52;22.85;;;14.38;;
17864;SDS011;9058;52.018;4.202;2022-12-26T01:20:19;24.27;;;13.82;;
17864;SDS011;9058;52.018;4.202;2022-12-26T01:22:45;21.70;;;14.05;;
17864;SDS011;9058;52.018;4.202;2022-12-26T01:25:12;22.75;;;14.10;;
17864;SDS011;9058;52.018;4.202;2022-12-26T01:27:38;18.77;;;14.18;;
17864;SDS011;9058;52.018;4.202;2022-12-26T01:30:06;22.48;;;13.63;;
17864;SDS011;9058;52.018;4.202;2022-12-26T01:32:34;21.80;;;13.95;;
17864;SDS011;9058;52.018;4.202;2022-12-26T01:35:01;18.55;;;12.63;;
17864;SDS011;9058;52.018;4.202;2022-12-26T01:37:27;26.20;;;13.85;;
17864;SDS011;9058;52.018;4.202;2022-12-26T01:39:53;19.52;;;13.27;;
17864;SDS011;9058;52.018;4.202;2022-12-26T01:42:20;14.85;;;8.90;;
17864;SDS011;9058;52.018;4.202;2022-12-26T01:44:54;17.48;;;11.27;;
17864;SDS011;9058;52.018;4.202;2022-12-26T01:47:22;17.15;;;10.38;;
17864;SDS011;9058;52.018;4.202;2022-12-26T01:49:51;15.73;;;9.98;;
17864;SDS011;9058;52.018;4.202;2022-12-26T01:52:18;13.35;;;9.07;;
17864;SDS011;9058;52.018;4.202;2022-12-26T01:54:47;18.55;;;11.63;;
17864;SDS011;9058;52.018;4.202;2022-12-26T01:57:15;19.48;;;12.35;;
17864;SDS011;9058;52.018;4.202;2022-12-26T01:59:42;21.35;;;11.95;;
17864;SDS011;9058;52.018;4.202;2022-12-26T02:02:09;15.35;;;10.02;;
17864;SDS011;9058;52.018;4.202;2022-12-26T02:04:38;22.30;;;13.65;;
17864;SDS011;9058;52.018;4.202;2022-12-26T02:07:35;19.48;;;12.02;;
17864;SDS011;9058;52.018;4.202;2022-12-26T02:10:03;18.40;;;12.60;;
17864;SDS011;9058;52.018;4.202;2022-12-26T02:12:31;20.55;;;12.68;;
17864;SDS011;9058;52.018;4.202;2022-12-26T02:14:58;19.00;;;12.60;;
17864;SDS011;9058;52.018;4.202;2022-12-26T02:17:25;18.40;;;12.40;;
17864;SDS011;9058;52.018;4.202;2022-12-26T02:19:54;23.25;;;13.73;;
17864;SDS011;9058;52.018;4.202;2022-12-26T02:22:29;21.67;;;13.55;;
17864;SDS011;9058;52.018;4.202;2022-12-26T02:25:06;20.20;;;12.68;;
17864;SDS011;9058;52.018;4.202;2022-12-26T02:27:45;19.85;;;13.30;;
17864;SDS011;9058;52.018;4.202;2022-12-26T02:30:25;22.60;;;12.50;;
17864;SDS011;9058;52.018;4.202;2022-12-26T02:32:57;18.30;;;12.90;;
17864;SDS011;9058;52.018;4.202;2022-12-26T02:35:31;25.23;;;14.57;;
17864;SDS011;9058;52.018;4.202;2022-12-26T02:38:03;20.95;;;13.95;;
17864;SDS011;9058;52.018;4.202;2022-12-26T02:40:33;21.58;;;13.07;;
17864;SDS011;9058;52.018;4.202;2022-12-26T02:43:05;20.23;;;13.88;;
17864;SDS011;9058;52.018;4.202;2022-12-26T02:45:37;22.17;;;13.43;;
17864;SDS011;9058;52.018;4.202;2022-12-26T02:48:24;19.45;;;11.82;;
17864;SDS011;9058;52.018;4.202;2022-12-26T02:50:57;20.23;;;13.02;;
17864;SDS011;9058;52.018;4.202;2022-12-26T02:53:44;17.02;;;12.00;;
17864;SDS011;9058;52.018;4.202;2022-12-26T02:56:31;17.60;;;12.10;;
17864;SDS011;9058;52.018;4.202;2022-12-26T02:59:17;15.38;;;11.07;;
17864;SDS011;9058;52.018;4.202;2022-12-26T03:02:06;14.18;;;9.23;;
17864;SDS011;9058;52.018;4.202;2022-12-26T03:04:55;15.00;;;9.93;;
17864;SDS011;9058;52.018;4.202;2022-12-26T03:07:39;12.88;;;9.63;;
17864;SDS011;9058;52.018;4.202;2022-12-26T03:10:24;14.52;;;10.73;;
17864;SDS011;9058;52.018;4.202;2022-12-26T03:13:19;13.10;;;9.82;;
17864;SDS011;9058;52.018;4.202;2022-12-26T03:15:49;15.32;;;9.77;;
17864;SDS011;9058;52.018;4.202;2022-12-26T03:18:37;12.85;;;9.27;;
17864;SDS011;9058;52.018;4.202;2022-12-26T03:21:05;12.45;;;9.18;;
17864;SDS011;9058;52.018;4.202;2022-12-26T03:23:32;12.07;;;9.40;;
17864;SDS011;9058;52.018;4.202;2022-12-26T03:26:00;12.25;;;8.38;;
17864;SDS011;9058;52.018;4.202;2022-12-26T03:28:47;12.60;;;8.93;;
17864;SDS011;9058;52.018;4.202;2022-12-26T03:31:13;12.20;;;8.95;;
17864;SDS011;9058;52.018;4.202;2022-12-26T03:33:42;11.98;;;9.50;;
17864;SDS011;9058;52.018;4.202;2022-12-26T03:36:30;14.80;;;10.15;;
17864;SDS011;9058;52.018;4.202;2022-12-26T03:39:02;13.20;;;10.23;;
17864;SDS011;9058;52.018;4.202;2022-12-26T03:41:33;12.60;;;10.15;;
17864;SDS011;9058;52.018;4.202;2022-12-26T03:44:21;13.30;;;10.60;;
17864;SDS011;9058;52.018;4.202;2022-12-26T03:47:12;11.02;;;8.57;;
17864;SDS011;9058;52.018;4.202;2022-12-26T03:50:02;15.30;;;9.23;;
17864;SDS011;9058;52.018;4.202;2022-12-26T03:53:03;13.75;;;8.75;;
17864;SDS011;9058;52.018;4.202;2022-12-26T03:55:49;12.30;;;8.07;;
17864;SDS011;9058;52.018;4.202;2022-12-26T03:58:36;11.20;;;7.88;;
17864;SDS011;9058;52.018;4.202;2022-12-26T04:01:20;9.57;;;7.03;;
17864;SDS011;9058;52.018;4.202;2022-12-26T04:04:07;8.25;;;6.57;;
17864;SDS011;9058;52.018;4.202;2022-12-26T04:06:55;10.02;;;6.60;;
17864;SDS011;9058;52.018;4.202;2022-12-26T04:09:41;9.00;;;4.82;;
17864;SDS011;9058;52.018;4.202;2022-12-26T04:12:25;8.00;;;5.13;;
17864;SDS011;9058;52.018;4.202;2022-12-26T04:15:12;8.32;;;5.53;;
17864;SDS011;9058;52.018;4.202;2022-12-26T04:17:58;6.35;;;4.20;;
17864;SDS011;9058;52.018;4.202;2022-12-26T04:20:47;7.45;;;5.20;;
17864;SDS011;9058;52.018;4.202;2022-12-26T04:23:17;6.97;;;5.03;;
17864;SDS011;9058;52.018;4.202;2022-12-26T04:26:06;7.63;;;5.55;;
17864;SDS011;9058;52.018;4.202;2022-12-26T04:28:51;7.53;;;4.90;;
17864;SDS011;9058;52.018;4.202;2022-12-26T04:31:37;8.20;;;5.47;;
17864;SDS011;9058;52.018;4.202;2022-12-26T04:34:26;10.65;;;4.93;;
17864;SDS011;9058;52.018;4.202;2022-12-26T04:37:13;7.35;;;4.03;;
17864;SDS011;9058;52.018;4.202;2022-12-26T04:40:02;8.65;;;4.38;;
17864;SDS011;9058;52.018;4.202;2022-12-26T04:42:47;6.25;;;4.25;;
17864;SDS011;9058;52.018;4.202;2022-12-26T04:45:31;8.60;;;3.90;;
17864;SDS011;9058;52.018;4.202;2022-12-26T04:47:59;5.20;;;3.58;;
17864;SDS011;9058;52.018;4.202;2022-12-26T04:50:50;3.53;;;2.70;;
17864;SDS011;9058;52.018;4.202;2022-12-26T04:53:17;5.95;;;3.10;;
17864;SDS011;9058;52.018;4.202;2022-12-26T04:55:44;4.93;;;2.55;;
17864;SDS011;9058;52.018;4.202;2022-12-26T04:58:11;5.68;;;3.30;;
17864;SDS011;9058;52.018;4.202;2022-12-26T05:00:37;6.22;;;2.95;;
17864;SDS011;9058;52.018;4.202;2022-12-26T05:03:04;7.85;;;2.90;;
17864;SDS011;9058;52.018;4.202;2022-12-26T05:05:49;6.10;;;3.45;;
17864;SDS011;9058;52.018;4.202;2022-12-26T05:08:33;5.65;;;2.55;;
17864;SDS011;9058;52.018;4.202;2022-12-26T05:11:32;3.90;;;3.17;;
17864;SDS011;9058;52.018;4.202;2022-12-26T05:13:59;4.53;;;3.10;;
17864;SDS011;9058;52.018;4.202;2022-12-26T05:16:26;5.80;;;3.33;;
17864;SDS011;9058;52.018;4.202;2022-12-26T05:19:11;6.60;;;3.15;;
17864;SDS011;9058;52.018;4.202;2022-12-26T05:21:55;5.50;;;2.67;;
17864;SDS011;9058;52.018;4.202;2022-12-26T05:24:39;3.55;;;3.03;;
17864;SDS011;9058;52.018;4.202;2022-12-26T05:27:25;5.07;;;2.42;;
17864;SDS011;9058;52.018;4.202;2022-12-26T05:30:12;4.28;;;3.22;;
17864;SDS011;9058;52.018;4.202;2022-12-26T05:32:38;4.00;;;3.15;;
17864;SDS011;9058;52.018;4.202;2022-12-26T05:35:22;3.72;;;3.13;;
17864;SDS011;9058;52.018;4.202;2022-12-26T05:37:49;3.42;;;3.13;;
17864;SDS011;9058;52.018;4.202;2022-12-26T05:40:15;8.15;;;3.28;;
17864;SDS011;9058;52.018;4.202;2022-12-26T05:42:43;5.18;;;3.08;;
17864;SDS011;9058;52.018;4.202;2022-12-26T05:45:09;6.00;;;3.53;;
17864;SDS011;9058;52.018;4.202;2022-12-26T05:47:36;5.35;;;3.78;;
17864;SDS011;9058;52.018;4.202;2022-12-26T05:50:03;6.60;;;3.55;;
17864;SDS011;9058;52.018;4.202;2022-12-26T05:52:29;6.63;;;2.80;;
17864;SDS011;9058;52.018;4.202;2022-12-26T05:54:55;5.65;;;3.63;;
17864;SDS011;9058;52.018;4.202;2022-12-26T05:57:22;6.38;;;3.60;;
17864;SDS011;9058;52.018;4.202;2022-12-26T05:59:49;5.70;;;3.70;;
17864;SDS011;9058;52.018;4.202;2022-12-26T06:02:16;7.55;;;4.03;;
17864;SDS011;9058;52.018;4.202;2022-12-26T06:04:42;7.10;;;3.60;;
17864;SDS011;9058;52.018;4.202;2022-12-26T06:07:08;7.85;;;3.95;;
17864;SDS011;9058;52.018;4.202;2022-12-26T06:09:35;5.07;;;3.50;;
17864;SDS011;9058;52.018;4.202;2022-12-26T06:12:01;4.20;;;3.63;;
17864;SDS011;9058;52.018;4.202;2022-12-26T06:14:27;6.47;;;3.75;;
17864;SDS011;9058;52.018;4.202;2022-12-26T06:16:55;7.30;;;3.80;;
17864;SDS011;9058;52.018;4.202;2022-12-26T06:19:21;5.00;;;3.42;;
17864;SDS011;9058;52.018;4.202;2022-12-26T06:21:48;7.18;;;3.83;;
17864;SDS011;9058;52.018;4.202;2022-12-26T06:24:14;4.93;;;3.25;;
17864;SDS011;9058;52.018;4.202;2022-12-26T06:26:41;5.72;;;2.92;;
17864;SDS011;9058;52.018;4.202;2022-12-26T06:29:07;6.22;;;3.45;;
17864;SDS011;9058;52.018;4.202;2022-12-26T06:31:34;6.90;;;3.50;;
17864;SDS011;9058;52.018;4.202;2022-12-26T06:34:03;6.82;;;3.13;;
17864;SDS011;9058;52.018;4.202;2022-12-26T06:36:29;7.93;;;3.40;;
17864;SDS011;9058;52.018;4.202;2022-12-26T06:38:55;5.18;;;2.90;;
17864;SDS011;9058;52.018;4.202;2022-12-26T06:41:23;5.22;;;2.58;;
17864;SDS011;9058;52.018;4.202;2022-12-26T06:43:49;6.78;;;3.08;;
17864;SDS011;9058;52.018;4.202;2022-12-26T06:46:16;4.78;;;2.92;;
17864;SDS011;9058;52.018;4.202;2022-12-26T06:48:43;6.28;;;3.17;;
17864;SDS011;9058;52.018;4.202;2022-12-26T06:51:11;11.13;;;2.90;;
17864;SDS011;9058;52.018;4.202;2022-12-26T06:53:38;6.32;;;2.55;;
17864;SDS011;9058;52.018;4.202;2022-12-26T06:56:05;6.63;;;2.38;;
17864;SDS011;9058;52.018;4.202;2022-12-26T06:58:31;7.13;;;2.50;;
17864;SDS011;9058;52.018;4.202;2022-12-26T07:01:02;5.22;;;2.45;;
17864;SDS011;9058;52.018;4.202;2022-12-26T07:03:28;4.28;;;2.72;;
17864;SDS011;9058;52.018;4.202;2022-12-26T07:05:55;11.75;;;2.97;;
17864;SDS011;9058;52.018;4.202;2022-12-26T07:08:22;9.50;;;2.70;;
17864;SDS011;9058;52.018;4.202;2022-12-26T07:10:49;5.63;;;2.80;;
17864;SDS011;9058;52.018;4.202;2022-12-26T07:13:15;4.70;;;2.13;;
17864;SDS011;9058;52.018;4.202;2022-12-26T07:15:41;6.53;;;2.72;;
17864;SDS011;9058;52.018;4.202;2022-12-26T07:18:08;8.38;;;2.90;;
17864;SDS011;9058;52.018;4.202;2022-12-26T07:20:34;5.32;;;2.78;;
17864;SDS011;9058;52.018;4.202;2022-12-26T07:23:00;9.55;;;3.05;;
17864;SDS011;9058;52.018;4.202;2022-12-26T07:25:28;9.48;;;2.65;;
17864;SDS011;9058;52.018;4.202;2022-12-26T07:27:54;6.93;;;2.78;;
17864;SDS011;9058;52.018;4.202;2022-12-26T07:30:21;7.78;;;3.38;;
17864;SDS011;9058;52.018;4.202;2022-12-26T07:32:47;8.88;;;2.75;;
17864;SDS011;9058;52.018;4.202;2022-12-26T07:35:13;6.60;;;2.20;;
17864;SDS011;9058;52.018;4.202;2022-12-26T07:37:40;6.57;;;2.38;;
17864;SDS011;9058;52.018;4.202;2022-12-26T07:40:06;2.40;;;2.15;;
17864;SDS011;9058;52.018;4.202;2022-12-26T07:42:34;6.70;;;2.60;;
17864;SDS011;9058;52.018;4.202;2022-12-26T07:45:01;5.78;;;2.35;;
17864;SDS011;9058;52.018;4.202;2022-12-26T07:47:27;8.88;;;2.70;;
17864;SDS011;9058;52.018;4.202;2022-12-26T07:49:53;8.52;;;2.38;;
17864;SDS011;9058;52.018;4.202;2022-12-26T07:52:20;12.10;;;3.50;;
17864;SDS011;9058;52.018;4.202;2022-12-26T07:54:47;8.05;;;2.58;;
17864;SDS011;9058;52.018;4.202;2022-12-26T07:57:13;12.30;;;2.75;;
17864;SDS011;9058;52.018;4.202;2022-12-26T07:59:41;6.45;;;1.00;;
17864;SDS011;9058;52.018;4.202;2022-12-26T08:02:07;7.50;;;2.05;;
17864;SDS011;9058;52.018;4.202;2022-12-26T08:04:34;8.68;;;1.60;;
17864;SDS011;9058;52.018;4.202;2022-12-26T08:07:01;6.97;;;1.90;;
17864;SDS011;9058;52.018;4.202;2022-12-26T08:09:27;8.32;;;2.80;;
17864;SDS011;9058;52.018;4.202;2022-12-26T08:11:53;9.65;;;2.42;;
17864;SDS011;9058;52.018;4.202;2022-12-26T08:14:20;13.52;;;2.70;;
17864;SDS011;9058;52.018;4.202;2022-12-26T08:16:47;8.43;;;1.85;;
17864;SDS011;9058;52.018;4.202;2022-12-26T08:19:14;12.23;;;2.38;;
17864;SDS011;9058;52.018;4.202;2022-12-26T08:21:40;8.75;;;1.67;;
17864;SDS011;9058;52.018;4.202;2022-12-26T08:24:06;8.65;;;1.85;;
17864;SDS011;9058;52.018;4.202;2022-12-26T08:26:33;12.88;;;1.95;;
17864;SDS011;9058;52.018;4.202;2022-12-26T08:28:59;12.75;;;2.13;;
17864;SDS011;9058;52.018;4.202;2022-12-26T08:31:26;13.90;;;3.10;;
17864;SDS011;9058;52.018;4.202;2022-12-26T08:33:54;10.35;;;1.83;;
17864;SDS011;9058;52.018;4.202;2022-12-26T08:36:21;11.50;;;1.88;;
17864;SDS011;9058;52.018;4.202;2022-12-26T08:38:48;15.20;;;2.28;;
17864;SDS011;9058;52.018;4.202;2022-12-26T08:41:14;11.23;;;2.60;;
17864;SDS011;9058;52.018;4.202;2022-12-26T08:43:42;12.43;;;3.13;;
17864;SDS011;9058;52.018;4.202;2022-12-26T08:46:10;13.80;;;2.72;;
17864;SDS011;9058;52.018;4.202;2022-12-26T08:48:37;13.77;;;2.80;;
17864;SDS011;9058;52.018;4.202;2022-12-26T08:51:06;14.32;;;2.50;;
17864;SDS011;9058;52.018;4.202;2022-12-26T08:53:33;13.80;;;2.58;;
17864;SDS011;9058;52.018;4.202;2022-12-26T08:56:02;12.48;;;3.13;;
17864;SDS011;9058;52.018;4.202;2022-12-26T08:58:28;17.05;;;2.88;;
17864;SDS011;9058;52.018;4.202;2022-12-26T09:01:00;20.67;;;3.13;;
17864;SDS011;9058;52.018;4.202;2022-12-26T09:03:31;13.10;;;2.60;;
17864;SDS011;9058;52.018;4.202;2022-12-26T09:05:57;19.50;;;3.10;;
17864;SDS011;9058;52.018;4.202;2022-12-26T09:08:25;10.25;;;1.92;;
17864;SDS011;9058;52.018;4.202;2022-12-26T09:10:53;8.25;;;2.05;;
17864;SDS011;9058;52.018;4.202;2022-12-26T09:13:21;8.90;;;2.05;;
17864;SDS011;9058;52.018;4.202;2022-12-26T09:15:47;7.70;;;2.10;;
17864;SDS011;9058;52.018;4.202;2022-12-26T09:18:14;6.65;;;1.83;;
17864;SDS011;9058;52.018;4.202;2022-12-26T09:20:40;8.82;;;1.60;;
17864;SDS011;9058;52.018;4.202;2022-12-26T09:23:07;9.02;;;1.67;;
17864;SDS011;9058;52.018;4.202;2022-12-26T09:25:36;7.22;;;2.15;;
17864;SDS011;9058;52.018;4.202;2022-12-26T09:28:03;11.45;;;2.00;;
17864;SDS011;9058;52.018;4.202;2022-12-26T09:30:30;11.02;;;1.98;;
17864;SDS011;9058;52.018;4.202;2022-12-26T09:32:56;13.48;;;2.20;;
17864;SDS011;9058;52.018;4.202;2022-12-26T09:35:23;14.20;;;2.17;;
17864;SDS011;9058;52.018;4.202;2022-12-26T09:37:49;10.23;;;1.58;;
17864;SDS011;9058;52.018;4.202;2022-12-26T09:40:19;8.60;;;2.28;;
17864;SDS011;9058;52.018;4.202;2022-12-26T09:42:49;9.07;;;1.50;;
17864;SDS011;9058;52.018;4.202;2022-12-26T09:45:18;9.93;;;1.90;;
17864;SDS011;9058;52.018;4.202;2022-12-26T09:47:51;8.07;;;1.83;;
17864;SDS011;9058;52.018;4.202;2022-12-26T09:50:23;8.70;;;1.90;;
17864;SDS011;9058;52.018;4.202;2022-12-26T09:52:51;7.25;;;1.52;;
17864;SDS011;9058;52.018;4.202;2022-12-26T09:55:24;4.90;;;1.73;;
17864;SDS011;9058;52.018;4.202;2022-12-26T09:57:54;8.15;;;2.10;;
17864;SDS011;9058;52.018;4.202;2022-12-26T10:00:22;6.53;;;1.50;;
17864;SDS011;9058;52.018;4.202;2022-12-26T10:02:51;8.63;;;1.52;;
17864;SDS011;9058;52.018;4.202;2022-12-26T10:05:18;9.30;;;1.27;;
17864;SDS011;9058;52.018;4.202;2022-12-26T10:07:47;9.48;;;2.88;;
17864;SDS011;9058;52.018;4.202;2022-12-26T10:10:16;9.07;;;1.83;;
17864;SDS011;9058;52.018;4.202;2022-12-26T10:12:50;10.85;;;2.05;;
17864;SDS011;9058;52.018;4.202;2022-12-26T10:15:25;11.15;;;1.70;;
17864;SDS011;9058;52.018;4.202;2022-12-26T10:17:54;7.78;;;1.55;;
17864;SDS011;9058;52.018;4.202;2022-12-26T10:20:23;9.02;;;2.00;;
17864;SDS011;9058;52.018;4.202;2022-12-26T10:22:58;6.38;;;1.80;;
17864;SDS011;9058;52.018;4.202;2022-12-26T10:25:27;7.82;;;2.67;;
17864;SDS011;9058;52.018;4.202;2022-12-26T10:27:58;7.35;;;1.95;;
17864;SDS011;9058;52.018;4.202;2022-12-26T10:30:29;6.53;;;1.23;;
17864;SDS011;9058;52.018;4.202;2022-12-26T10:32:58;7.40;;;1.58;;
17864;SDS011;9058;52.018;4.202;2022-12-26T10:35:27;7.53;;;1.58;;
17864;SDS011;9058;52.018;4.202;2022-12-26T10:37:55;6.22;;;1.52;;
17864;SDS011;9058;52.018;4.202;2022-12-26T10:40:24;7.82;;;1.40;;
17864;SDS011;9058;52.018;4.202;2022-12-26T10:42:52;8.85;;;1.42;;
17864;SDS011;9058;52.018;4.202;2022-12-26T10:45:19;7.90;;;1.75;;
17864;SDS011;9058;52.018;4.202;2022-12-26T10:47:49;6.32;;;1.95;;
17864;SDS011;9058;52.018;4.202;2022-12-26T10:50:16;8.73;;;1.73;;
17864;SDS011;9058;52.018;4.202;2022-12-26T10:52:43;4.30;;;1.40;;
17864;SDS011;9058;52.018;4.202;2022-12-26T10:55:12;6.20;;;1.42;;
17864;SDS011;9058;52.018;4.202;2022-12-26T10:57:38;5.20;;;1.42;;
17864;SDS011;9058;52.018;4.202;2022-12-26T11:00:12;7.50;;;1.30;;
17864;SDS011;9058;52.018;4.202;2022-12-26T11:02:38;3.40;;;1.25;;
17864;SDS011;9058;52.018;4.202;2022-12-26T11:05:07;6.75;;;1.38;;
17864;SDS011;9058;52.018;4.202;2022-12-26T11:07:35;4.43;;;1.42;;
17864;SDS011;9058;52.018;4.202;2022-12-26T11:10:02;3.20;;;1.30;;
17864;SDS011;9058;52.018;4.202;2022-12-26T11:12:36;5.65;;;1.20;;
17864;SDS011;9058;52.018;4.202;2022-12-26T11:15:03;5.95;;;1.10;;
17864;SDS011;9058;52.018;4.202;2022-12-26T11:17:31;7.40;;;1.20;;
17864;SDS011;9058;52.018;4.202;2022-12-26T11:20:10;6.72;;;0.90;;
17864;SDS011;9058;52.018;4.202;2022-12-26T11:22:37;6.80;;;1.13;;
17864;SDS011;9058;52.018;4.202;2022-12-26T11:25:12;5.55;;;1.00;;
17864;SDS011;9058;52.018;4.202;2022-12-26T11:27:41;3.70;;;1.10;;
17864;SDS011;9058;52.018;4.202;2022-12-26T11:30:09;4.13;;;1.45;;
17864;SDS011;9058;52.018;4.202;2022-12-26T11:32:40;5.25;;;1.13;;
17864;SDS011;9058;52.018;4.202;2022-12-26T11:35:15;6.18;;;1.20;;
17864;SDS011;9058;52.018;4.202;2022-12-26T11:37:44;5.13;;;1.25;;
17864;SDS011;9058;52.018;4.202;2022-12-26T11:40:15;3.97;;;1.20;;
17864;SDS011;9058;52.018;4.202;2022-12-26T11:42:41;4.53;;;1.48;;
17864;SDS011;9058;52.018;4.202;2022-12-26T11:45:09;4.30;;;1.13;;
17864;SDS011;9058;52.018;4.202;2022-12-26T11:47:35;6.35;;;1.65;;
17864;SDS011;9058;52.018;4.202;2022-12-26T11:50:03;4.30;;;1.00;;
17864;SDS011;9058;52.018;4.202;2022-12-26T11:52:34;7.25;;;1.90;;
17864;SDS011;9058;52.018;4.202;2022-12-26T11:55:04;4.25;;;1.30;;
17864;SDS011;9058;52.018;4.202;2022-12-26T11:57:53;2.47;;;1.00;;
17864;SDS011;9058;52.018;4.202;2022-12-26T12:00:20;4.97;;;1.20;;
17864;SDS011;9058;52.018;4.202;2022-12-26T12:02:47;7.35;;;1.20;;
17864;SDS011;9058;52.018;4.202;2022-12-26T12:05:14;3.47;;;1.10;;
17864;SDS011;9058;52.018;4.202;2022-12-26T12:07:47;5.82;;;1.77;;
17864;SDS011;9058;52.018;4.202;2022-12-26T12:10:25;2.60;;;1.10;;
17864;SDS011;9058;52.018;4.202;2022-12-26T12:12:54;5.95;;;1.17;;
17864;SDS011;9058;52.018;4.202;2022-12-26T12:15:23;4.18;;;1.02;;
17864;SDS011;9058;52.018;4.202;2022-12-26T12:17:54;4.30;;;1.13;;
17864;SDS011;9058;52.018;4.202;2022-12-26T12:20:25;4.32;;;1.33;;
17864;SDS011;9058;52.018;4.202;2022-12-26T12:23:01;6.90;;;1.20;;
17864;SDS011;9058;52.018;4.202;2022-12-26T12:25:36;4.07;;;1.27;;
17864;SDS011;9058;52.018;4.202;2022-12-26T12:28:08;4.00;;;1.30;;
17864;SDS011;9058;52.018;4.202;2022-12-26T12:30:37;3.60;;;0.88;;
17864;SDS011;9058;52.018;4.202;2022-12-26T12:33:10;6.72;;;1.73;;
17864;SDS011;9058;52.018;4.202;2022-12-26T12:35:45;4.32;;;0.93;;
17864;SDS011;9058;52.018;4.202;2022-12-26T12:38:19;7.63;;;1.20;;
17864;SDS011;9058;52.018;4.202;2022-12-26T12:40:50;5.32;;;1.30;;
17864;SDS011;9058;52.018;4.202;2022-12-26T12:43:21;10.82;;;1.60;;
17864;SDS011;9058;52.018;4.202;2022-12-26T12:45:54;7.50;;;1.38;;
17864;SDS011;9058;52.018;4.202;2022-12-26T12:48:26;8.27;;;1.25;;
17864;SDS011;9058;52.018;4.202;2022-12-26T12:50:57;3.22;;;1.23;;
17864;SDS011;9058;52.018;4.202;2022-12-26T12:53:31;6.85;;;1.83;;
17864;SDS011;9058;52.018;4.202;2022-12-26T12:56:04;8.13;;;1.80;;
17864;SDS011;9058;52.018;4.202;2022-12-26T12:58:34;4.47;;;1.15;;
17864;SDS011;9058;52.018;4.202;2022-12-26T13:01:02;6.22;;;1.10;;
17864;SDS011;9058;52.018;4.202;2022-12-26T13:03:31;8.18;;;1.25;;
17864;SDS011;9058;52.018;4.202;2022-12-26T13:06:01;5.95;;;1.10;;
17864;SDS011;9058;52.018;4.202;2022-12-26T13:08:34;8.55;;;1.25;;
17864;SDS011;9058;52.018;4.202;2022-12-26T13:11:02;4.82;;;1.42;;
17864;SDS011;9058;52.018;4.202;2022-12-26T13:13:31;4.72;;;1.00;;
17864;SDS011;9058;52.018;4.202;2022-12-26T13:15:59;8.02;;;1.23;;
17864;SDS011;9058;52.018;4.202;2022-12-26T13:18:27;4.75;;;0.90;;
17864;SDS011;9058;52.018;4.202;2022-12-26T13:20:56;5.10;;;1.17;;
17864;SDS011;9058;52.018;4.202;2022-12-26T13:23:26;5.00;;;1.33;;
17864;SDS011;9058;52.018;4.202;2022-12-26T13:26:13;8.65;;;1.17;;
17864;SDS011;9058;52.018;4.202;2022-12-26T13:28:45;6.75;;;1.15;;
17864;SDS011;9058;52.018;4.202;2022-12-26T13:31:13;9.38;;;1.20;;
17864;SDS011;9058;52.018;4.202;2022-12-26T13:33:40;5.20;;;0.80;;
17864;SDS011;9058;52.018;4.202;2022-12-26T13:36:07;4.57;;;1.23;;
17864;SDS011;9058;52.018;4.202;2022-12-26T13:41:26;5.53;;;1.23;;
17864;SDS011;9058;52.018;4.202;2022-12-26T13:44:22;5.78;;;1.40;;
17864;SDS011;9058;52.018;4.202;2022-12-26T13:46:55;4.13;;;1.20;;
17864;SDS011;9058;52.018;4.202;2022-12-26T13:49:27;3.60;;;1.10;;
17864;SDS011;9058;52.018;4.202;2022-12-26T13:51:55;6.57;;;1.75;;
17864;SDS011;9058;52.018;4.202;2022-12-26T13:54:22;9.52;;;1.65;;
17864;SDS011;9058;52.018;4.202;2022-12-26T13:59:39;8.27;;;1.75;;
17864;SDS011;9058;52.018;4.202;2022-12-26T14:02:14;9.55;;;1.55;;
17864;SDS011;9058;52.018;4.202;2022-12-26T14:04:46;7.45;;;1.40;;
17864;SDS011;9058;52.018;4.202;2022-12-26T14:07:20;8.75;;;2.10;;
17864;SDS011;9058;52.018;4.202;2022-12-26T14:09:52;12.38;;;1.67;;
17864;SDS011;9058;52.018;4.202;2022-12-26T14:12:24;7.97;;;1.60;;
17864;SDS011;9058;52.018;4.202;2022-12-26T14:14:58;9.05;;;1.73;;
17864;SDS011;9058;52.018;4.202;2022-12-26T14:17:31;7.43;;;1.38;;
17864;SDS011;9058;52.018;4.202;2022-12-26T14:20:02;8.52;;;2.22;;
17864;SDS011;9058;52.018;4.202;2022-12-26T14:22:35;6.22;;;1.58;;
17864;SDS011;9058;52.018;4.202;2022-12-26T14:25:07;10.10;;;1.95;;
17864;SDS011;9058;52.018;4.202;2022-12-26T14:27:39;6.53;;;1.30;;
17864;SDS011;9058;52.018;4.202;2022-12-26T14:30:21;7.93;;;1.50;;
17864;SDS011;9058;52.018;4.202;2022-12-26T14:32:52;15.02;;;1.75;;
17864;SDS011;9058;52.018;4.202;2022-12-26T14:35:22;6.10;;;1.13;;
17864;SDS011;9058;52.018;4.202;2022-12-26T14:37:54;7.40;;;1.42;;
17864;SDS011;9058;52.018;4.202;2022-12-26T14:40:24;8.90;;;1.40;;
17864;SDS011;9058;52.018;4.202;2022-12-26T14:43:00;8.95;;;1.60;;
17864;SDS011;9058;52.018;4.202;2022-12-26T14:45:39;6.65;;;1.25;;
17864;SDS011;9058;52.018;4.202;2022-12-26T14:50:52;5.00;;;1.10;;
17864;SDS011;9058;52.018;4.202;2022-12-26T14:55:57;13.38;;;2.25;;
17864;SDS011;9058;52.018;4.202;2022-12-26T14:58:25;6.15;;;1.13;;
17864;SDS011;9058;52.018;4.202;2022-12-26T15:00:54;7.55;;;1.38;;
17864;SDS011;9058;52.018;4.202;2022-12-26T15:03:36;8.27;;;2.05;;
17864;SDS011;9058;52.018;4.202;2022-12-26T15:06:19;10.15;;;1.42;;
17864;SDS011;9058;52.018;4.202;2022-12-26T15:08:56;9.80;;;1.92;;
17864;SDS011;9058;52.018;4.202;2022-12-26T15:11:32;7.60;;;1.38;;
17864;SDS011;9058;52.018;4.202;2022-12-26T15:14:09;5.32;;;1.55;;
17864;SDS011;9058;52.018;4.202;2022-12-26T15:16:43;9.13;;;1.70;;
17864;SDS011;9058;52.018;4.202;2022-12-26T15:19:32;9.90;;;1.90;;
17864;SDS011;9058;52.018;4.202;2022-12-26T15:22:07;4.87;;;1.30;;
17864;SDS011;9058;52.018;4.202;2022-12-26T15:24:48;12.60;;;1.97;;
17864;SDS011;9058;52.018;4.202;2022-12-26T15:27:23;11.13;;;1.47;;
17864;SDS011;9058;52.018;4.202;2022-12-26T15:30:08;7.20;;;1.42;;